createdAt,value
2022-10-17T00:00:23.841Z,1.60
2022-10-17T00:02:51.782Z,1.60
2022-10-17T00:05:21.622Z,1.50
2022-10-17T00:07:49.850Z,1.63
2022-10-17T00:10:18.786Z,1.80
2022-10-17T00:12:46.735Z,1.60
2022-10-17T00:15:18.331Z,1.90
2022-10-17T00:17:46.719Z,1.77
2022-10-17T00:20:17.095Z,1.60
2022-10-17T00:22:46.304Z,1.73
2022-10-17T00:25:14.559Z,1.83
2022-10-17T00:27:43.082Z,1.67
2022-10-17T00:30:13.571Z,1.77
2022-10-17T00:32:41.671Z,2.00
2022-10-17T00:35:10.317Z,2.00
2022-10-17T00:37:38.459Z,1.93
2022-10-17T00:40:10.578Z,2.13
2022-10-17T00:42:38.619Z,2.00
2022-10-17T00:45:18.004Z,2.00
2022-10-17T00:47:49.410Z,2.17
2022-10-17T00:50:18.142Z,2.30
2022-10-17T00:52:47.927Z,2.00
2022-10-17T00:55:21.042Z,1.87
2022-10-17T00:57:49.883Z,2.30
2022-10-17T01:00:18.709Z,2.67
2022-10-17T01:02:47.237Z,2.07
2022-10-17T01:05:16.587Z,2.20
2022-10-17T01:07:45.529Z,2.00
2022-10-17T01:10:15.262Z,2.30
2022-10-17T01:12:56.652Z,2.23
2022-10-17T01:15:37.110Z,3.00
2022-10-17T01:18:15.325Z,2.57
2022-10-17T01:21:03.417Z,2.63
2022-10-17T01:23:58.097Z,2.30
2022-10-17T01:26:38.463Z,2.60
2022-10-17T01:29:30.382Z,2.70
2022-10-17T01:32:05.233Z,2.53
2022-10-17T01:34:37.180Z,2.30
2022-10-17T01:37:10.033Z,2.60
2022-10-17T01:39:46.977Z,2.60
2022-10-17T01:42:20.383Z,2.40
2022-10-17T01:44:55.598Z,2.57
2022-10-17T01:47:29.616Z,2.40
2022-10-17T01:50:01.755Z,2.40
2022-10-17T01:52:34.322Z,2.57
2022-10-17T01:55:07.264Z,2.60
2022-10-17T01:57:40.322Z,2.40
2022-10-17T02:00:13.135Z,2.87
2022-10-17T02:02:45.970Z,2.57
2022-10-17T02:05:14.235Z,2.47
2022-10-17T02:07:43.782Z,2.57
2022-10-17T02:10:18.548Z,2.73
2022-10-17T02:12:53.821Z,2.40
2022-10-17T02:15:46.147Z,2.60
2022-10-17T02:18:36.576Z,2.40
2022-10-17T02:21:09.443Z,2.77
2022-10-17T02:23:48.601Z,2.40
2022-10-17T02:26:22.202Z,2.40
2022-10-17T02:29:00.148Z,2.80
2022-10-17T02:31:33.705Z,2.43
2022-10-17T02:34:05.974Z,2.60
2022-10-17T02:36:38.571Z,2.80
2022-10-17T02:39:08.013Z,2.50
2022-10-17T02:41:37.601Z,2.73
2022-10-17T02:44:07.980Z,2.67
2022-10-17T02:46:39.748Z,2.50
2022-10-17T02:49:16.939Z,2.60
2022-10-17T02:51:51.622Z,3.07
2022-10-17T02:54:24.306Z,2.60
2022-10-17T02:56:57.079Z,2.70
2022-10-17T02:59:27.257Z,2.63
2022-10-17T03:01:55.729Z,2.90
2022-10-17T03:04:25.235Z,2.90
2022-10-17T03:06:53.231Z,3.13
2022-10-17T03:09:22.355Z,2.97
2022-10-17T03:11:50.293Z,2.73
2022-10-17T03:14:18.375Z,2.80
2022-10-17T03:16:47.984Z,3.10
2022-10-17T03:19:15.897Z,3.00
2022-10-17T03:21:45.895Z,3.07
2022-10-17T03:24:13.766Z,2.87
2022-10-17T03:26:41.913Z,2.73
2022-10-17T03:29:10.127Z,2.60
2022-10-17T03:31:38.668Z,3.10
2022-10-17T03:34:06.822Z,3.13
2022-10-17T03:36:34.592Z,2.80
2022-10-17T03:39:04.066Z,3.10
2022-10-17T03:41:32.479Z,3.00
2022-10-17T03:44:00.457Z,3.23
2022-10-17T03:46:28.666Z,2.70
2022-10-17T03:48:56.539Z,3.03
2022-10-17T03:51:24.214Z,2.93
2022-10-17T03:53:52.064Z,3.00
2022-10-17T03:56:23.715Z,2.77
2022-10-17T03:58:53.251Z,2.70
2022-10-17T04:01:21.746Z,3.40
2022-10-17T04:03:50.783Z,3.20
2022-10-17T04:06:18.878Z,2.80
2022-10-17T04:08:47.208Z,3.17
2022-10-17T04:11:17.335Z,2.60
2022-10-17T04:13:47.613Z,3.60
2022-10-17T04:16:17.409Z,3.10
2022-10-17T04:18:45.675Z,3.47
2022-10-17T04:21:15.183Z,3.60
2022-10-17T04:23:42.882Z,3.07
2022-10-17T04:26:11.023Z,3.23
2022-10-17T04:31:11.706Z,3.17
2022-10-17T04:33:39.942Z,3.37
2022-10-17T04:36:09.108Z,2.93
2022-10-17T04:38:37.475Z,3.40
2022-10-17T04:41:08.973Z,3.17
2022-10-17T04:43:39.191Z,2.90
2022-10-17T04:46:10.187Z,3.30
2022-10-17T04:48:39.216Z,3.23
2022-10-17T04:51:10.294Z,3.40
2022-10-17T04:53:39.107Z,3.13
2022-10-17T04:56:12.378Z,3.20
2022-10-17T04:58:41.925Z,3.40
2022-10-17T05:01:14.143Z,3.20
2022-10-17T05:03:42.386Z,3.23
2022-10-17T05:06:13.676Z,3.07
2022-10-17T05:08:42.946Z,3.10
2022-10-17T05:11:18.303Z,3.47
2022-10-17T05:13:46.475Z,3.23
2022-10-17T05:16:16.331Z,3.60
2022-10-17T05:18:44.634Z,3.50
2022-10-17T05:21:13.898Z,3.43
2022-10-17T05:23:41.685Z,3.27
2022-10-17T05:26:09.464Z,3.03
2022-10-17T05:28:37.506Z,2.73
2022-10-17T05:31:05.376Z,3.03
2022-10-17T05:33:35.576Z,3.13
2022-10-17T05:36:04.122Z,3.30
2022-10-17T05:38:32.208Z,3.00
2022-10-17T05:41:00.139Z,3.27
2022-10-17T05:43:28.580Z,2.80
2022-10-17T05:45:56.953Z,3.10
2022-10-17T05:48:25.353Z,3.10
2022-10-17T05:51:01.371Z,3.30
2022-10-17T05:53:32.180Z,3.07
2022-10-17T05:56:01.696Z,3.00
2022-10-17T05:58:50.194Z,2.80
2022-10-17T06:01:19.018Z,3.00
2022-10-17T06:03:46.877Z,3.43
2022-10-17T06:06:17.261Z,3.70
2022-10-17T06:08:47.399Z,3.50
2022-10-17T06:11:15.452Z,3.17
2022-10-17T06:13:43.805Z,3.50
2022-10-17T06:16:11.992Z,3.33
2022-10-17T06:18:40.554Z,3.10
2022-10-17T06:21:11.847Z,3.10
2022-10-17T06:23:41.499Z,3.07
2022-10-17T06:26:10.582Z,3.23
2022-10-17T06:28:41.198Z,3.03
2022-10-17T06:31:10.524Z,3.00
2022-10-17T06:33:39.235Z,2.87
2022-10-17T06:36:09.475Z,3.03
2022-10-17T06:38:40.484Z,3.30
2022-10-17T06:41:14.031Z,2.97
2022-10-17T06:43:46.406Z,2.77
2022-10-17T06:46:16.619Z,2.80
2022-10-17T06:48:45.899Z,3.23
2022-10-17T06:51:14.525Z,2.90
2022-10-17T06:53:44.116Z,3.10
2022-10-17T06:56:12.331Z,3.10
2022-10-17T06:58:41.364Z,2.90
2022-10-17T07:01:11.258Z,3.00
2022-10-17T07:03:41.442Z,2.80
2022-10-17T07:06:12.042Z,2.60
2022-10-17T07:08:46.176Z,2.80
2022-10-17T07:11:16.854Z,2.80
2022-10-17T07:13:46.489Z,2.97
2022-10-17T07:16:15.449Z,2.60
2022-10-17T07:18:49.940Z,3.07
2022-10-17T07:21:18.830Z,2.70
2022-10-17T07:23:49.731Z,3.00
2022-10-17T07:26:19.269Z,2.97
2022-10-17T07:28:50.076Z,3.10
2022-10-17T07:31:20.299Z,2.90
2022-10-17T07:33:48.904Z,2.73
2022-10-17T07:36:17.830Z,3.20
2022-10-17T07:38:49.195Z,3.17
2022-10-17T07:41:23.823Z,3.37
2022-10-17T07:43:51.879Z,3.07
2022-10-17T07:46:20.201Z,2.60
2022-10-17T07:48:48.848Z,2.93
2022-10-17T07:51:18.388Z,3.03
2022-10-17T07:53:48.836Z,3.00
2022-10-17T07:56:21.913Z,2.60
2022-10-17T07:58:49.895Z,2.53
2022-10-17T08:01:18.962Z,3.00
2022-10-17T08:03:49.272Z,2.80
2022-10-17T08:06:20.258Z,2.67
2022-10-17T08:08:48.319Z,2.90
2022-10-17T08:11:16.846Z,3.00
2022-10-17T08:13:46.844Z,2.60
2022-10-17T08:16:14.960Z,2.70
2022-10-17T08:18:44.867Z,2.80
2022-10-17T08:21:14.284Z,2.63
2022-10-17T08:23:42.641Z,2.63
2022-10-17T08:26:13.492Z,2.60
2022-10-17T08:31:19.087Z,2.80
2022-10-17T08:36:29.303Z,2.60
2022-10-17T08:38:57.195Z,2.47
2022-10-17T08:41:41.162Z,2.97
2022-10-17T08:44:18.524Z,2.40
2022-10-17T08:46:51.490Z,2.60
2022-10-17T08:49:27.723Z,2.30
2022-10-17T08:52:04.522Z,2.60
2022-10-17T08:54:41.889Z,2.30
2022-10-17T08:57:13.414Z,2.30
2022-10-17T08:59:41.360Z,2.37
2022-10-17T09:02:26.448Z,2.00
2022-10-17T09:05:11.091Z,2.30
2022-10-17T09:07:46.880Z,2.40
2022-10-17T09:10:17.741Z,2.17
2022-10-17T09:12:52.144Z,2.20
2022-10-17T09:15:41.328Z,2.20
2022-10-17T09:18:21.083Z,2.23
2022-10-17T09:20:54.236Z,2.10
2022-10-17T09:23:25.515Z,2.20
2022-10-17T09:25:56.028Z,1.90
2022-10-17T09:28:30.075Z,2.20
2022-10-17T09:31:02.281Z,2.00
2022-10-17T09:33:53.438Z,2.00
2022-10-17T09:36:25.778Z,2.10
2022-10-17T09:38:56.406Z,1.90
2022-10-17T09:44:20.487Z,1.90
2022-10-17T09:47:12.023Z,1.97
2022-10-17T09:49:42.994Z,2.20
2022-10-17T09:52:15.581Z,2.30
2022-10-17T09:54:47.152Z,1.97
2022-10-17T09:57:16.272Z,1.90
2022-10-17T09:59:46.371Z,2.03
2022-10-17T10:02:23.362Z,2.30
2022-10-17T10:05:04.327Z,2.07
2022-10-17T10:07:35.728Z,1.77
2022-10-17T10:10:05.409Z,1.90
2022-10-17T10:12:34.865Z,1.77
2022-10-17T10:15:03.361Z,1.80
2022-10-17T10:17:38.375Z,2.10
2022-10-17T10:20:29.205Z,2.00
2022-10-17T10:23:07.383Z,2.00
2022-10-17T10:25:36.683Z,2.10
2022-10-17T10:28:11.907Z,2.10
2022-10-17T10:30:40.329Z,2.00
2022-10-17T10:33:12.901Z,1.77
2022-10-17T10:35:42.200Z,1.63
2022-10-17T10:38:15.228Z,1.90
2022-10-17T10:40:49.425Z,1.80
2022-10-17T10:43:29.215Z,1.90
2022-10-17T10:45:57.390Z,1.90
2022-10-17T10:48:27.630Z,2.03
2022-10-17T10:50:59.373Z,1.80
2022-10-17T10:53:35.954Z,1.80
2022-10-17T10:56:12.377Z,2.00
2022-10-17T10:58:50.219Z,1.80
2022-10-17T11:01:27.570Z,1.70
2022-10-17T11:04:21.110Z,1.80
2022-10-17T11:06:53.524Z,1.70
2022-10-17T11:09:33.751Z,2.00
2022-10-17T11:12:08.340Z,2.83
2022-10-17T11:14:42.010Z,3.27
2022-10-17T11:17:20.908Z,2.20
2022-10-17T11:19:57.535Z,2.40
2022-10-17T11:22:31.304Z,1.90
2022-10-17T11:25:01.956Z,2.10
2022-10-17T11:27:31.800Z,2.23
2022-10-17T11:30:00.224Z,1.90
2022-10-17T11:32:32.979Z,2.30
2022-10-17T11:35:05.450Z,2.40
2022-10-17T11:37:40.780Z,2.40
2022-10-17T11:40:20.442Z,1.70
2022-10-17T11:42:56.495Z,2.50
2022-10-17T11:45:28.056Z,2.17
2022-10-17T11:48:02.032Z,1.80
2022-10-17T11:53:26.329Z,2.40
2022-10-17T11:55:55.712Z,1.90
2022-10-17T11:58:34.332Z,2.77
2022-10-17T12:01:13.040Z,2.27
2022-10-17T12:04:02.582Z,2.07
2022-10-17T12:06:49.226Z,1.93
2022-10-17T12:09:26.734Z,2.07
2022-10-17T12:11:57.279Z,2.00
2022-10-17T12:14:52.211Z,2.00
2022-10-17T12:17:33.022Z,2.10
2022-10-17T12:20:27.515Z,2.00
2022-10-17T12:22:56.925Z,2.17
2022-10-17T12:25:31.632Z,2.00
2022-10-17T12:28:14.451Z,2.20
2022-10-17T12:30:55.139Z,2.57
2022-10-17T12:33:27.048Z,2.43
2022-10-17T12:36:27.230Z,2.20
2022-10-17T12:39:33.562Z,1.70
2022-10-17T12:42:02.855Z,1.90
2022-10-17T12:44:38.257Z,2.20
2022-10-17T12:47:37.548Z,2.43
2022-10-17T12:50:25.924Z,2.03
2022-10-17T12:53:05.365Z,2.70
2022-10-17T12:55:34.287Z,2.40
2022-10-17T12:58:08.091Z,2.17
2022-10-17T13:00:49.706Z,2.40
2022-10-17T13:03:30.127Z,2.10
2022-10-17T13:06:02.243Z,2.23
2022-10-17T13:08:34.400Z,1.80
2022-10-17T13:11:03.730Z,1.90
2022-10-17T13:13:39.304Z,1.97
2022-10-17T13:16:07.726Z,2.40
2022-10-17T13:18:35.682Z,2.17
2022-10-17T13:21:08.344Z,2.60
2022-10-17T13:23:38.938Z,2.17
2022-10-17T13:26:20.325Z,2.03
2022-10-17T13:29:01.563Z,2.20
2022-10-17T13:31:32.139Z,2.00
2022-10-17T13:34:02.251Z,2.00
2022-10-17T13:36:31.567Z,2.43
2022-10-17T13:39:07.633Z,2.33
2022-10-17T13:41:38.703Z,2.07
2022-10-17T13:44:14.408Z,1.77
2022-10-17T13:46:42.739Z,2.17
2022-10-17T13:49:16.327Z,2.00
2022-10-17T13:51:46.242Z,1.93
2022-10-17T13:54:36.139Z,1.80
2022-10-17T13:57:05.971Z,2.23
2022-10-17T13:59:40.036Z,2.23
2022-10-17T14:02:13.530Z,1.87
2022-10-17T14:05:11.772Z,2.00
2022-10-17T14:07:58.115Z,2.00
2022-10-17T14:10:29.119Z,1.77
2022-10-17T14:12:57.981Z,2.10
2022-10-17T14:15:30.936Z,2.00
2022-10-17T14:18:07.342Z,1.90
2022-10-17T14:23:34.211Z,1.90
2022-10-17T14:26:13.897Z,2.10
2022-10-17T14:28:44.800Z,2.40
2022-10-17T14:31:20.870Z,2.17
2022-10-17T14:33:51.135Z,2.10
2022-10-17T14:36:19.770Z,2.40
2022-10-17T14:38:49.396Z,2.27
2022-10-17T14:44:28.120Z,2.10
2022-10-17T14:47:00.281Z,2.47
2022-10-17T14:49:35.423Z,2.67
2022-10-17T14:52:29.471Z,2.10
2022-10-17T14:54:58.491Z,1.93
2022-10-17T14:57:44.163Z,2.07
2022-10-17T15:00:16.072Z,2.60
2022-10-17T15:02:45.071Z,2.17
2022-10-17T15:05:13.756Z,2.30
2022-10-17T15:07:42.030Z,2.07
2022-10-17T15:10:24.754Z,2.10
2022-10-17T15:12:59.332Z,2.20
2022-10-17T15:15:39.229Z,2.20
2022-10-17T15:18:08.835Z,2.00
2022-10-17T15:20:36.873Z,2.40
2022-10-17T15:23:04.988Z,2.50
2022-10-17T15:25:34.299Z,1.80
2022-10-17T15:28:03.699Z,2.47
2022-10-17T15:30:33.568Z,2.20
2022-10-17T15:33:01.615Z,2.13
2022-10-17T15:35:29.875Z,2.77
2022-10-17T15:37:58.562Z,2.17
2022-10-17T15:40:29.333Z,2.20
2022-10-17T15:42:57.530Z,2.23
2022-10-17T15:45:26.709Z,2.37
2022-10-17T15:47:57.272Z,1.93
2022-10-17T15:50:25.550Z,1.90
2022-10-17T15:52:53.983Z,2.07
2022-10-17T15:55:22.791Z,2.07
2022-10-17T15:57:50.894Z,2.27
2022-10-17T16:00:21.315Z,2.10
2022-10-17T16:02:51.789Z,2.50
2022-10-17T16:05:23.534Z,2.10
2022-10-17T16:07:51.889Z,2.00
2022-10-17T16:10:21.651Z,2.10
2022-10-17T16:12:50.455Z,2.27
2022-10-17T16:15:22.952Z,2.00
2022-10-17T16:17:52.924Z,2.10
2022-10-17T16:20:21.219Z,2.60
2022-10-17T16:22:50.477Z,2.20
2022-10-17T16:25:22.206Z,2.20
2022-10-17T16:27:53.098Z,1.90
2022-10-17T16:32:51.218Z,2.20
2022-10-17T16:35:24.131Z,2.30
2022-10-17T16:37:51.983Z,2.10
2022-10-17T16:40:20.723Z,2.50
2022-10-17T16:42:48.750Z,2.50
2022-10-17T16:45:18.750Z,2.40
2022-10-17T16:47:47.293Z,2.90
2022-10-17T16:50:15.975Z,2.57
2022-10-17T16:52:45.489Z,2.80
2022-10-17T16:55:13.542Z,2.90
2022-10-17T16:57:41.428Z,2.50
2022-10-17T17:00:12.010Z,3.07
2022-10-17T17:02:40.099Z,2.73
2022-10-17T17:05:09.132Z,2.37
2022-10-17T17:07:37.009Z,3.17
2022-10-17T17:10:07.768Z,2.97
2022-10-17T17:12:36.726Z,3.07
2022-10-17T17:15:05.382Z,3.50
2022-10-17T17:17:48.756Z,3.27
2022-10-17T17:20:19.275Z,3.33
2022-10-17T17:22:47.398Z,3.50
2022-10-17T17:25:17.040Z,3.87
2022-10-17T17:27:44.911Z,3.90
2022-10-17T17:30:15.017Z,3.50
2022-10-17T17:32:42.980Z,3.40
2022-10-17T17:35:10.990Z,3.47
2022-10-17T17:37:38.762Z,3.60
2022-10-17T17:40:07.997Z,3.73
2022-10-17T17:42:37.664Z,3.70
2022-10-17T17:45:07.267Z,3.70
2022-10-17T17:47:34.976Z,3.90
2022-10-17T17:50:03.745Z,3.63
2022-10-17T17:52:32.140Z,3.93
2022-10-17T17:55:00.429Z,4.13
2022-10-17T17:57:30.584Z,4.30
2022-10-17T17:59:59.777Z,4.03
2022-10-17T18:02:28.148Z,4.20
2022-10-17T18:04:57.326Z,3.97
2022-10-17T18:07:25.980Z,4.60
2022-10-17T18:09:53.924Z,5.10
2022-10-17T18:12:21.962Z,4.27
2022-10-17T18:14:50.106Z,4.50
2022-10-17T18:17:20.711Z,4.90
2022-10-17T18:19:49.247Z,4.30
2022-10-17T18:22:17.260Z,4.63
2022-10-17T18:24:46.458Z,4.53
2022-10-17T18:27:16.009Z,4.97
2022-10-17T18:29:45.969Z,4.10
2022-10-17T18:32:15.267Z,4.10
2022-10-17T18:34:46.170Z,4.00
2022-10-17T18:37:14.758Z,4.03
2022-10-17T18:39:42.637Z,4.50
2022-10-17T18:42:11.395Z,4.30
2022-10-17T18:44:39.436Z,4.40
2022-10-17T18:47:07.196Z,4.90
2022-10-17T18:49:35.803Z,5.00
2022-10-17T18:52:05.429Z,5.13
2022-10-17T18:54:34.657Z,4.97
2022-10-17T18:57:02.418Z,4.70
2022-10-17T18:59:30.247Z,4.77
2022-10-17T19:01:58.141Z,4.87
2022-10-17T19:04:26.496Z,5.37
2022-10-17T19:06:54.820Z,5.30
2022-10-17T19:09:24.735Z,4.83
2022-10-17T19:11:52.524Z,4.80
2022-10-17T19:14:20.666Z,4.77
2022-10-17T19:16:50.935Z,4.40
2022-10-17T19:19:21.931Z,5.10
2022-10-17T19:21:51.105Z,4.90
2022-10-17T19:24:23.607Z,5.47
2022-10-17T19:26:54.982Z,5.10
2022-10-17T19:29:25.095Z,5.77
2022-10-17T19:34:21.722Z,6.37
2022-10-17T19:36:49.515Z,6.47
2022-10-17T19:39:19.297Z,6.13
2022-10-17T19:41:48.644Z,6.40
2022-10-17T19:44:18.425Z,6.60
2022-10-17T19:46:47.070Z,6.40
2022-10-17T19:49:15.441Z,7.10
2022-10-17T19:51:43.292Z,6.93
2022-10-17T19:54:11.368Z,7.23
2022-10-17T19:56:40.606Z,7.20
2022-10-17T19:59:09.016Z,6.60
2022-10-17T20:01:39.862Z,6.73
2022-10-17T20:04:08.866Z,6.73
2022-10-17T20:06:36.917Z,7.17
2022-10-17T20:09:05.596Z,6.97
2022-10-17T20:11:33.690Z,7.40
2022-10-17T20:14:02.296Z,6.90
2022-10-17T20:16:32.685Z,7.17
2022-10-17T20:19:06.585Z,7.50
2022-10-17T20:21:36.639Z,8.27
2022-10-17T20:24:06.886Z,6.63
2022-10-17T20:26:38.511Z,7.57
2022-10-17T20:29:11.086Z,7.43
2022-10-17T20:31:39.770Z,7.83
2022-10-17T20:34:10.924Z,8.10
2022-10-17T20:36:38.799Z,8.43
2022-10-17T20:39:07.771Z,8.77
2022-10-17T20:41:36.301Z,7.93
2022-10-17T20:44:04.838Z,8.50
2022-10-17T20:46:37.650Z,8.37
2022-10-17T20:49:12.577Z,7.60
2022-10-17T20:51:40.637Z,7.97
2022-10-17T20:54:10.244Z,8.27
2022-10-17T20:56:38.741Z,9.13
2022-10-17T20:59:08.658Z,8.60
2022-10-17T21:01:37.492Z,8.40
2022-10-17T21:04:26.967Z,9.03
2022-10-17T21:06:55.625Z,9.13
2022-10-17T21:09:23.674Z,10.20
2022-10-17T21:11:55.238Z,10.03
2022-10-17T21:14:24.003Z,9.17
2022-10-17T21:16:53.449Z,9.53
2022-10-17T21:19:21.913Z,9.63
2022-10-17T21:21:49.874Z,8.83
2022-10-17T21:24:20.831Z,8.63
2022-10-17T21:26:55.305Z,9.00
2022-10-17T21:29:24.648Z,8.73
2022-10-17T21:31:52.902Z,10.00
2022-10-17T21:34:22.003Z,10.33
2022-10-17T21:36:50.278Z,9.30
2022-10-17T21:39:20.575Z,9.73
2022-10-17T21:41:48.482Z,8.73
2022-10-17T21:44:18.433Z,9.40
2022-10-17T21:46:47.251Z,9.63
2022-10-17T21:49:18.797Z,8.90
2022-10-17T21:51:47.878Z,9.03
2022-10-17T21:54:16.719Z,8.70
2022-10-17T21:56:46.233Z,8.33
2022-10-17T21:59:14.646Z,8.10
2022-10-17T22:01:44.132Z,7.90
2022-10-17T22:04:15.146Z,8.00
2022-10-17T22:06:45.281Z,7.97
2022-10-17T22:09:15.667Z,8.70
2022-10-17T22:11:47.821Z,7.47
2022-10-17T22:14:18.540Z,8.37
2022-10-17T22:16:47.469Z,9.03
2022-10-17T22:19:19.471Z,9.90
2022-10-17T22:21:47.742Z,10.40
2022-10-17T22:24:17.797Z,10.40
2022-10-17T22:26:47.494Z,10.17
2022-10-17T22:29:15.619Z,10.37
2022-10-17T22:31:43.603Z,10.97
2022-10-17T22:34:13.831Z,11.33
2022-10-17T22:36:42.047Z,11.00
2022-10-17T22:39:11.749Z,10.17
2022-10-17T22:41:39.951Z,10.30
2022-10-17T22:44:10.370Z,9.87
2022-10-17T22:46:38.299Z,9.27
2022-10-17T22:49:06.112Z,8.60
2022-10-17T22:51:33.967Z,9.17
2022-10-17T22:54:03.328Z,7.93
2022-10-17T22:56:31.400Z,9.17
2022-10-17T22:58:59.553Z,8.97
2022-10-17T23:01:28.807Z,9.40
2022-10-17T23:03:56.810Z,9.03
2022-10-17T23:06:24.691Z,9.90
2022-10-17T23:08:53.186Z,8.13
2022-10-17T23:11:21.956Z,9.73
2022-10-17T23:13:51.190Z,8.17
2022-10-17T23:16:19.407Z,8.53
2022-10-17T23:18:50.298Z,8.40
2022-10-17T23:21:18.368Z,8.30
2022-10-17T23:23:46.495Z,9.20
2022-10-17T23:26:16.048Z,8.43
2022-10-17T23:28:44.504Z,8.50
2022-10-17T23:31:15.334Z,8.40
2022-10-17T23:33:45.103Z,8.50
2022-10-17T23:36:16.077Z,9.30
2022-10-17T23:38:45.819Z,8.97
2022-10-17T23:41:14.062Z,9.40
2022-10-17T23:43:42.316Z,8.47
2022-10-17T23:46:11.072Z,8.43
2022-10-17T23:48:39.344Z,8.73
2022-10-17T23:51:07.524Z,8.00
2022-10-17T23:53:37.111Z,8.73
2022-10-17T23:56:06.262Z,8.33
2022-10-17T23:58:34.137Z,8.47
